Time;durP1;ratioP1;P1;durP2;ratioP2;P2;SDS_P1;SDS_P2;PMS_P1;PMS_P2;Temp;Humidity;BMP_temperature;BMP_pressure;BME280_temperature;BME280_humidity;BME280_pressure;Samples;Min_cycle;Max_cycle;Signal;HPM_P1;HPM_P2
2022/04/09 00:03:46;;;;;;;;;;;5.00;99.90;;;;;;10408885;28;86080;-49
2022/04/09 00:08:46;;;;;;;;;;;5.00;99.90;;;;;;10375586;28;86311;-49
2022/04/09 00:13:47;;;;;;;;;;;5.10;99.90;;;;;;10410322;28;86819;-51
2022/04/09 00:18:47;;;;;;;;;;;5.10;99.90;;;;;;10410783;28;84735;-50
2022/04/09 00:23:48;;;;;;;;;;;5.10;99.90;;;;;;10410053;28;84646;-49
2022/04/09 00:28:48;;;;;;;;;;;5.00;99.90;;;;;;10408080;28;93273;-46
2022/04/09 00:33:49;;;;;;;;;;;5.00;99.90;;;;;;10392571;28;86960;-48
2022/04/09 00:38:50;;;;;;;;;;;5.00;99.90;;;;;;10409517;28;85756;-47
2022/04/09 00:43:50;;;;;;;;;;;4.90;99.90;;;;;;10409095;28;84833;-53
2022/04/09 00:48:51;;;;;;;;;;;4.90;99.90;;;;;;10391408;28;85741;-51
2022/04/09 00:53:52;;;;;;;;;;;4.90;99.90;;;;;;10409948;28;84193;-51
2022/04/09 00:58:55;;;;;;;;;;;4.90;99.90;;;;;;10391789;28;86312;-52
2022/04/09 01:03:56;;;;;;;;;;;4.80;99.90;;;;;;10337031;28;85670;-50
2022/04/09 01:08:56;;;;;;;;;;;4.80;99.90;;;;;;10368731;28;84945;-48
2022/04/09 01:13:58;;;;;;;;;;;4.80;99.90;;;;;;10369129;28;86768;-50
2022/04/09 01:18:59;;;;;;;;;;;4.90;99.90;;;;;;10368966;28;84904;-51
2022/04/09 01:24:04;;;;;;;;;;;4.90;99.90;;;;;;10353351;28;87114;-49
2022/04/09 01:29:06;;;;;;;;;;;4.80;99.90;;;;;;10351065;28;86664;-49
2022/04/09 01:34:08;;;;;;;;;;;4.90;99.90;;;;;;10352210;28;86070;-49
2022/04/09 01:39:09;;;;;;;;;;;4.90;99.90;;;;;;10371372;28;86528;-48
2022/04/09 01:44:11;;;;;;;;;;;4.90;99.90;;;;;;10354117;28;86424;-47
2022/04/09 01:49:12;;;;;;;;;;;4.90;99.90;;;;;;10349416;28;85208;-53
2022/04/09 01:54:14;;;;;;;;;;;4.80;99.90;;;;;;10356993;28;85406;-49
2022/04/09 01:59:15;;;;;;;;;;;4.80;99.90;;;;;;10372633;28;86887;-49
2022/04/09 02:04:15;;;;;;;;;;;4.80;99.90;;;;;;10390359;28;86896;-49
2022/04/09 02:09:16;;;;;;;;;;;4.80;99.90;;;;;;10389606;28;86410;-49
2022/04/09 02:14:18;;;;;;;;;;;4.80;99.90;;;;;;10354258;23;86033;-42
2022/04/09 02:19:18;;;;;;;;;;;4.80;99.90;;;;;;10355061;28;86825;-42
2022/04/09 02:24:19;;;;;;;;;;;4.70;99.90;;;;;;10372419;28;85990;-42
2022/04/09 02:29:20;;;;;;;;;;;4.70;99.90;;;;;;10354680;28;86845;-48
2022/04/09 02:34:21;;;;;;;;;;;4.70;99.90;;;;;;10352999;28;86779;-43
2022/04/09 02:39:21;;;;;;;;;;;4.80;99.90;;;;;;10354112;28;86133;-44
2022/04/09 02:44:24;;;;;;;;;;;4.80;99.90;;;;;;10350158;28;86802;-43
2022/04/09 02:49:24;;;;;;;;;;;4.90;99.90;;;;;;10372293;28;85051;-45
2022/04/09 02:54:25;;;;;;;;;;;5.00;99.90;;;;;;10364688;28;86097;-47
2022/04/09 02:59:27;;;;;;;;;;;5.00;99.90;;;;;;10353395;28;85972;-44
2022/04/09 03:04:28;;;;;;;;;;;5.00;99.90;;;;;;10371721;28;84024;-48
2022/04/09 03:09:28;;;;;;;;;;;5.00;99.90;;;;;;10371643;28;84643;-44
2022/04/09 03:14:29;;;;;;;;;;;5.10;99.90;;;;;;10371804;28;84016;-43
2022/04/09 03:19:29;;;;;;;;;;;5.20;99.90;;;;;;10354545;28;85865;-43
2022/04/09 03:24:31;;;;;;;;;;;5.20;99.90;;;;;;10352556;28;85779;-44
2022/04/09 03:29:33;;;;;;;;;;;5.20;99.90;;;;;;10358658;28;87072;-45
2022/04/09 03:34:35;;;;;;;;;;;5.20;99.90;;;;;;10364567;28;86989;-44
2022/04/09 03:39:38;;;;;;;;;;;5.20;99.90;;;;;;10351580;28;86589;-45
2022/04/09 03:44:39;;;;;;;;;;;5.20;99.90;;;;;;10370819;28;84238;-44
2022/04/09 03:49:40;;;;;;;;;;;5.20;99.90;;;;;;10351848;28;85772;-45
2022/04/09 03:54:41;;;;;;;;;;;5.10;99.90;;;;;;10352191;28;86880;-43
2022/04/09 03:59:43;;;;;;;;;;;5.10;99.90;;;;;;10351526;28;86011;-42
2022/04/09 04:04:44;;;;;;;;;;;5.10;99.90;;;;;;10352337;28;86268;-43
2022/04/09 04:09:46;;;;;;;;;;;5.10;99.90;;;;;;10350827;28;85863;-45
2022/04/09 04:14:48;;;;;;;;;;;5.20;99.90;;;;;;10351323;28;86733;-44
2022/04/09 04:19:48;;;;;;;;;;;5.20;99.90;;;;;;10359880;28;86919;-41
2022/04/09 04:24:49;;;;;;;;;;;5.20;99.90;;;;;;10378564;28;84890;-39
2022/04/09 04:29:50;;;;;;;;;;;5.20;99.90;;;;;;10390466;28;84293;-43
2022/04/09 04:34:51;;;;;;;;;;;5.10;99.90;;;;;;10390317;28;86036;-44
2022/04/09 04:39:54;;;;;;;;;;;5.20;99.90;;;;;;10391385;28;86254;-45
2022/04/09 04:44:55;;;;;;;;;;;5.20;99.90;;;;;;10380596;28;86547;-42
2022/04/09 04:49:56;;;;;;;;;;;5.20;99.90;;;;;;10369853;28;86737;-44
2022/04/09 04:54:57;;;;;;;;;;;5.10;99.90;;;;;;10383739;28;86838;-45
2022/04/09 04:59:58;;;;;;;;;;;5.10;99.90;;;;;;10366706;28;86030;-48
2022/04/09 05:05:01;;;;;;;;;;;5.10;99.90;;;;;;10356332;28;84792;-45
2022/04/09 05:10:03;;;;;;;;;;;5.00;99.90;;;;;;10373847;28;85799;-42
2022/04/09 05:15:05;;;;;;;;;;;5.00;99.90;;;;;;10409308;28;84121;-43
2022/04/09 05:20:06;;;;;;;;;;;5.00;99.90;;;;;;10351292;28;85858;-43
2022/04/09 05:25:08;;;;;;;;;;;4.90;99.90;;;;;;10350169;28;87106;-52
2022/04/09 05:30:09;;;;;;;;;;;5.00;99.90;;;;;;10342544;28;84914;-46
2022/04/09 05:35:13;;;;;;;;;;;5.00;99.90;;;;;;10349770;28;86769;-47
2022/04/09 05:40:16;;;;;;;;;;;5.10;99.90;;;;;;10348549;28;86711;-47
2022/04/09 05:45:17;;;;;;;;;;;5.10;99.90;;;;;;10349248;28;86758;-41
2022/04/09 05:50:20;;;;;;;;;;;5.10;99.90;;;;;;10343008;28;86966;-46
2022/04/09 05:55:21;;;;;;;;;;;5.00;99.90;;;;;;10374636;28;84258;-48
2022/04/09 06:00:22;;;;;;;;;;;5.10;99.90;;;;;;10350019;28;86758;-59
2022/04/09 06:05:36;;;;;;;;;;;5.20;99.90;;;;;;10368356;28;84870;-59
2022/04/09 06:10:41;;;;;;;;;;;5.50;99.90;;;;;;10333990;28;85672;-60
2022/04/09 06:15:41;;;;;;;;;;;5.70;79.30;;;;;;10348503;28;85882;-62
2022/04/09 06:20:48;;;;;;;;;;;5.90;29.80;;;;;;10349194;28;85963;-61
2022/04/09 06:25:51;;;;;;;;;;;6.10;17.40;;;;;;10345018;28;86732;-56
2022/04/09 06:30:54;;;;;;;;;;;6.00;94.10;;;;;;10360000;28;86425;-43
2022/04/09 06:35:57;;;;;;;;;;;5.60;99.90;;;;;;10363185;28;86936;-48
2022/04/09 06:41:00;;;;;;;;;;;5.00;99.90;;;;;;10367786;28;86913;-44
2022/04/09 06:46:08;;;;;;;;;;;4.80;99.90;;;;;;10344704;28;86781;-49
2022/04/09 06:51:08;;;;;;;;;;;4.80;99.90;;;;;;10394858;28;84761;-51
2022/04/09 06:56:09;;;;;;;;;;;4.90;99.90;;;;;;10378804;28;85669;-50
2022/04/09 07:01:10;;;;;;;;;;;4.90;99.90;;;;;;10355079;28;86870;-53
2022/04/09 07:06:16;;;;;;;;;;;5.00;99.90;;;;;;10352872;28;85036;-48
2022/04/09 07:11:16;;;;;;;;;;;5.10;99.90;;;;;;10367646;28;84820;-50
2022/04/09 07:16:17;;;;;;;;;;;5.20;99.90;;;;;;10369515;28;84233;-53
2022/04/09 07:21:18;;;;;;;;;;;5.30;99.90;;;;;;10383857;28;87132;-48
2022/04/09 07:26:20;;;;;;;;;;;5.50;99.90;;;;;;10410610;28;84083;-46
2022/04/09 07:31:21;;;;;;;;;;;5.60;99.90;;;;;;10377336;28;84298;-50
2022/04/09 07:36:21;;;;;;;;;;;5.90;99.90;;;;;;10351351;28;84922;-51
2022/04/09 07:41:22;;;;;;;;;;;6.20;99.90;;;;;;10368135;28;84630;-55
2022/04/09 07:46:23;;;;;;;;;;;6.30;99.90;;;;;;10350373;28;85976;-53
2022/04/09 07:51:24;;;;;;;;;;;6.50;68.60;;;;;;10369397;28;84863;-46
2022/04/09 07:56:24;;;;;;;;;;;6.70;90.50;;;;;;10349649;28;84963;-45
2022/04/09 08:01:25;;;;;;;;;;;7.00;1.00;;;;;;10371824;28;84942;-49
2022/04/09 08:06:25;;;;;;;;;;;6.70;18.30;;;;;;10399247;28;84170;-51
2022/04/09 08:11:27;;;;;;;;;;;6.40;55.00;;;;;;10391831;28;87101;-54
2022/04/09 08:16:27;;;;;;;;;;;7.30;99.90;;;;;;10368756;28;84680;-50
2022/04/09 08:21:28;;;;;;;;;;;8.20;1.00;;;;;;10369765;28;84910;-54
2022/04/09 08:26:28;;;;;;;;;;;9.30;1.00;;;;;;10368400;28;83933;-52
2022/04/09 08:31:29;;;;;;;;;;;9.30;1.00;;;;;;10368441;28;84855;-51
2022/04/09 08:36:30;;;;;;;;;;;9.40;1.00;;;;;;10368717;28;84124;-46
2022/04/09 08:41:30;;;;;;;;;;;9.30;1.00;;;;;;10368237;28;84108;-52
2022/04/09 08:46:31;;;;;;;;;;;8.90;1.00;;;;;;10368531;28;84215;-48
2022/04/09 08:51:32;;;;;;;;;;;8.80;1.00;;;;;;10367640;28;84760;-54
2022/04/09 08:56:34;;;;;;;;;;;8.40;1.00;;;;;;10349997;28;84898;-50
2022/04/09 09:01:34;;;;;;;;;;;8.20;1.00;;;;;;10367179;28;84243;-56
2022/04/09 09:06:39;;;;;;;;;;;7.70;1.00;;;;;;10366856;28;84877;-52
2022/04/09 09:11:46;;;;;;;;;;;8.20;1.00;;;;;;10367140;28;84096;-49
2022/04/09 09:16:48;;;;;;;;;;;10.00;1.00;;;;;;10348300;28;86183;-52
2022/04/09 09:21:53;;;;;;;;;;;9.60;1.00;;;;;;10367928;28;84050;-53
2022/04/09 09:26:58;;;;;;;;;;;10.10;1.00;;;;;;10373601;28;84149;-54
2022/04/09 09:31:59;;;;;;;;;;;11.50;99.90;;;;;;10374112;28;85305;-49
2022/04/09 09:37:00;;;;;;;;;;;12.30;99.90;;;;;;10373060;28;84866;-51
2022/04/09 09:42:04;;;;;;;;;;;13.30;1.00;;;;;;10373530;28;84042;-49
2022/04/09 09:47:05;;;;;;;;;;;12.00;1.00;;;;;;10373052;28;84922;-52
2022/04/09 09:52:08;;;;;;;;;;;11.40;86.70;;;;;;10374249;28;84117;-48
2022/04/09 09:57:18;;;;;;;;;;;11.20;99.90;;;;;;10374121;28;84566;-51
2022/04/09 10:02:22;;;;;;;;;;;10.10;99.90;;;;;;10374895;28;84053;-50
2022/04/09 10:07:24;;;;;;;;;;;8.90;1.00;;;;;;10373123;28;84890;-48
2022/04/09 10:12:25;;;;;;;;;;;8.40;1.00;;;;;;10373065;28;84906;-50
2022/04/09 10:17:26;;;;;;;;;;;8.50;1.00;;;;;;10372485;28;84138;-52
2022/04/09 10:22:28;;;;;;;;;;;9.70;1.00;;;;;;10373838;28;84258;-52
2022/04/09 10:27:32;;;;;;;;;;;11.80;99.90;;;;;;10371649;28;84828;-49
2022/04/09 10:32:43;;;;;;;;;;;13.40;1.00;;;;;;10372050;28;84899;-49
2022/04/09 10:38:02;;;;;;;;;;;14.10;99.90;;;;;;10371617;28;84667;-54
2022/04/09 10:43:04;;;;;;;;;;;14.70;56.20;;;;;;10371863;28;84082;-52
2022/04/09 10:48:06;;;;;;;;;;;12.80;1.00;;;;;;10370971;28;84795;-49
2022/04/09 10:53:07;;;;;;;;;;;10.40;99.90;;;;;;10371873;28;84760;-49
2022/04/09 10:58:10;;;;;;;;;;;8.20;1.00;;;;;;10371265;28;84136;-48
2022/04/09 11:03:10;;;;;;;;;;;7.20;1.00;;;;;;10370722;28;84188;-46
2022/04/09 11:08:14;;;;;;;;;;;8.40;1.00;;;;;;10367872;28;84264;-52
2022/04/09 11:13:15;;;;;;;;;;;10.70;1.00;;;;;;10353073;28;85822;-54
2022/04/09 11:18:16;;;;;;;;;;;12.20;99.90;;;;;;10370452;28;84086;-55
2022/04/09 11:23:19;;;;;;;;;;;12.70;99.90;;;;;;10370006;28;84191;-52
2022/04/09 11:28:20;;;;;;;;;;;13.70;1.00;;;;;;10369676;28;84454;-56
2022/04/09 11:33:21;;;;;;;;;;;13.20;1.00;;;;;;10371396;28;85148;-50
2022/04/09 11:38:22;;;;;;;;;;;12.90;1.00;;;;;;10368919;28;85284;-50
2022/04/09 11:43:23;;;;;;;;;;;12.60;1.00;;;;;;10369450;28;84217;-53
2022/04/09 11:48:27;;;;;;;;;;;12.20;1.00;;;;;;10369099;28;84180;-52
2022/04/09 11:53:28;;;;;;;;;;;11.90;99.90;;;;;;10351894;28;86024;-49
2022/04/09 11:58:29;;;;;;;;;;;11.00;71.70;;;;;;10369447;28;90317;-50
2022/04/09 12:03:31;;;;;;;;;;;9.70;99.90;;;;;;10370732;28;85291;-57
2022/04/09 12:08:33;;;;;;;;;;;10.10;99.90;;;;;;10362092;28;84610;-48
2022/04/09 12:13:34;;;;;;;;;;;10.80;99.90;;;;;;10363069;28;84232;-51
2022/04/09 12:18:36;;;;;;;;;;;8.50;1.00;;;;;;10366039;28;84862;-48
2022/04/09 12:23:36;;;;;;;;;;;7.10;1.00;;;;;;10365443;28;84082;-50
2022/04/09 12:28:37;;;;;;;;;;;6.80;21.50;;;;;;10356041;28;84570;-50
2022/04/09 12:33:56;;;;;;;;;;;8.00;1.00;;;;;;10319059;28;88977;-52
2022/04/09 12:38:57;;;;;;;;;;;8.80;1.00;;;;;;10370587;28;84458;-52
2022/04/09 12:43:57;;;;;;;;;;;9.90;1.00;;;;;;10377843;28;84805;-47
2022/04/09 12:48:59;;;;;;;;;;;11.00;1.00;;;;;;10361233;28;88187;-47
2022/04/09 12:54:00;;;;;;;;;;;12.40;99.90;;;;;;10410082;28;84229;-46
2022/04/09 12:59:01;;;;;;;;;;;11.60;99.90;;;;;;10407148;28;84923;-46
2022/04/09 13:04:02;;;;;;;;;;;10.00;1.00;;;;;;10333460;28;84978;-49
2022/04/09 13:09:02;;;;;;;;;;;8.90;1.00;;;;;;10340094;28;84782;-52
2022/04/09 13:14:03;;;;;;;;;;;8.40;1.00;;;;;;10357893;28;85053;-47
2022/04/09 13:19:05;;;;;;;;;;;8.70;1.00;;;;;;10352110;28;84805;-52
2022/04/09 13:24:06;;;;;;;;;;;8.90;1.00;;;;;;10343785;28;84908;-53
2022/04/09 13:29:06;;;;;;;;;;;9.30;1.00;;;;;;10348152;28;85195;-49
2022/04/09 13:34:11;;;;;;;;;;;9.40;1.00;;;;;;10332301;28;84109;-50
2022/04/09 13:39:16;;;;;;;;;;;9.20;1.00;;;;;;10348300;28;84824;-45
2022/04/09 13:44:16;;;;;;;;;;;8.70;1.00;;;;;;10343194;28;85056;-49
2022/04/09 13:49:17;;;;;;;;;;;8.30;1.00;;;;;;10366277;28;84143;-53
2022/04/09 13:54:17;;;;;;;;;;;8.90;1.00;;;;;;10366008;28;85324;-51
2022/04/09 13:59:18;;;;;;;;;;;10.40;99.90;;;;;;10365841;28;84199;-47
2022/04/09 14:04:19;;;;;;;;;;;11.10;99.90;;;;;;10349384;28;85003;-46
2022/04/09 14:09:19;;;;;;;;;;;11.90;1.00;;;;;;10370056;28;84110;-48
2022/04/09 14:14:20;;;;;;;;;;;12.30;99.90;;;;;;10406418;22;84545;-47
2022/04/09 14:19:21;;;;;;;;;;;13.10;99.90;;;;;;10435667;28;86234;-51
2022/04/09 14:24:21;;;;;;;;;;;13.20;1.00;;;;;;10399513;28;85013;-46
2022/04/09 14:29:22;;;;;;;;;;;12.80;1.00;;;;;;10395031;28;84388;-49
2022/04/09 14:34:23;;;;;;;;;;;11.20;1.00;;;;;;10395670;28;84283;-47
2022/04/09 14:39:23;;;;;;;;;;;9.50;99.90;;;;;;10379633;28;84369;-49
2022/04/09 14:44:24;;;;;;;;;;;7.60;1.00;;;;;;10391999;28;84816;-49
2022/04/09 14:49:24;;;;;;;;;;;6.20;97.70;;;;;;10374621;28;84937;-50
2022/04/09 14:54:25;;;;;;;;;;;6.00;99.90;;;;;;10400387;28;84958;-46
2022/04/09 14:59:25;;;;;;;;;;;5.80;99.90;;;;;;10412160;28;85890;-47
2022/04/09 15:04:26;;;;;;;;;;;5.90;99.90;;;;;;10382795;28;86014;-45
2022/04/09 15:09:26;;;;;;;;;;;6.10;99.90;;;;;;10413578;28;85039;-46
2022/04/09 15:14:27;;;;;;;;;;;6.40;99.90;;;;;;10412308;28;84973;-45
2022/04/09 15:19:27;;;;;;;;;;;6.70;99.90;;;;;;10386469;28;85105;-47
2022/04/09 15:24:28;;;;;;;;;;;7.00;99.90;;;;;;10371997;28;84950;-48
2022/04/09 15:29:29;;;;;;;;;;;6.80;99.90;;;;;;10371419;28;84995;-47
2022/04/09 15:34:29;;;;;;;;;;;6.40;99.90;;;;;;10370745;28;84770;-47
2022/04/09 15:39:30;;;;;;;;;;;6.50;99.90;;;;;;10383868;28;84935;-45
2022/04/09 15:44:31;;;;;;;;;;;6.80;99.90;;;;;;10373086;28;85011;-44
2022/04/09 15:49:33;;;;;;;;;;;7.00;80.90;;;;;;10368144;28;86102;-46
2022/04/09 15:54:35;;;;;;;;;;;6.90;99.90;;;;;;10370860;28;84191;-45
2022/04/09 15:59:36;;;;;;;;;;;6.80;99.90;;;;;;10370199;28;84707;-48
2022/04/09 16:04:37;;;;;;;;;;;6.80;99.90;;;;;;10367802;28;84273;-47
2022/04/09 16:09:38;;;;;;;;;;;6.90;99.90;;;;;;10378870;28;84157;-46
2022/04/09 16:14:38;;;;;;;;;;;7.00;1.00;;;;;;10379361;28;85094;-46
2022/04/09 16:19:39;;;;;;;;;;;7.10;1.00;;;;;;10378565;28;85152;-46
2022/04/09 16:24:40;;;;;;;;;;;7.00;1.00;;;;;;10407683;28;84137;-45
2022/04/09 16:29:40;;;;;;;;;;;7.10;1.00;;;;;;10394512;28;83995;-44
2022/04/09 16:34:41;;;;;;;;;;;7.20;1.00;;;;;;10369764;28;84031;-46
2022/04/09 16:39:41;;;;;;;;;;;7.20;1.00;;;;;;10369852;28;84113;-43
2022/04/09 16:44:42;;;;;;;;;;;7.30;1.00;;;;;;10370444;28;84860;-47
2022/04/09 16:49:44;;;;;;;;;;;7.50;1.00;;;;;;10370129;28;84916;-44
2022/04/09 16:54:45;;;;;;;;;;;7.30;1.00;;;;;;10370177;28;84016;-47
2022/04/09 16:59:45;;;;;;;;;;;6.50;1.00;;;;;;10368193;28;87045;-43
2022/04/09 17:04:46;;;;;;;;;;;5.80;1.00;;;;;;10369441;28;84260;-44
2022/04/09 17:09:47;;;;;;;;;;;5.10;99.90;;;;;;10368880;28;85193;-44
2022/04/09 17:14:47;;;;;;;;;;;5.10;1.00;;;;;;10370686;28;84918;-45
2022/04/09 17:19:48;;;;;;;;;;;5.40;1.00;;;;;;10369731;28;84949;-47
2022/04/09 17:24:48;;;;;;;;;;;5.60;22.90;;;;;;10370612;28;84477;-45
2022/04/09 17:29:49;;;;;;;;;;;5.70;99.90;;;;;;10369687;28;85003;-44
2022/04/09 17:34:49;;;;;;;;;;;5.70;70.00;;;;;;10369552;28;85186;-45
2022/04/09 17:39:50;;;;;;;;;;;5.80;92.10;;;;;;10369549;28;83960;-44
2022/04/09 17:44:52;;;;;;;;;;;5.70;51.70;;;;;;10371233;28;86167;-44
2022/04/09 17:49:53;;;;;;;;;;;5.90;95.80;;;;;;10375040;28;85191;-44
2022/04/09 17:54:53;;;;;;;;;;;6.00;37.80;;;;;;10375920;28;84312;-46
2022/04/09 17:59:54;;;;;;;;;;;6.10;26.80;;;;;;10373671;28;85058;-44
2022/04/09 18:04:54;;;;;;;;;;;6.10;5.40;;;;;;10373806;28;84951;-47
2022/04/09 18:09:55;;;;;;;;;;;6.00;1.00;;;;;;10374557;28;84956;-46
2022/04/09 18:14:55;;;;;;;;;;;5.90;1.00;;;;;;10374116;28;84812;-45
2022/04/09 18:19:56;;;;;;;;;;;5.90;1.00;;;;;;10373615;28;84640;-45
2022/04/09 18:24:57;;;;;;;;;;;5.80;1.00;;;;;;10374794;28;84580;-46
2022/04/09 18:29:57;;;;;;;;;;;5.80;1.00;;;;;;10373299;28;84182;-48
2022/04/09 18:34:59;;;;;;;;;;;5.70;1.00;;;;;;10374249;28;84927;-45
2022/04/09 18:40:00;;;;;;;;;;;5.70;1.00;;;;;;10373803;28;85690;-45
2022/04/09 18:45:01;;;;;;;;;;;5.70;1.00;;;;;;10373709;28;85743;-49
2022/04/09 18:50:02;;;;;;;;;;;5.70;1.00;;;;;;10373797;28;84006;-45
2022/04/09 18:55:03;;;;;;;;;;;5.60;1.00;;;;;;10373664;28;84934;-46
2022/04/09 19:00:05;;;;;;;;;;;5.60;1.00;;;;;;10372600;28;86014;-46
2022/04/09 19:05:06;;;;;;;;;;;5.50;1.00;;;;;;10372090;28;85764;-45
2022/04/09 19:10:13;;;;;;;;;;;5.50;1.00;;;;;;10371344;28;84393;-46
2022/04/09 19:15:14;;;;;;;;;;;5.50;1.00;;;;;;10372260;28;84261;-50
2022/04/09 19:20:15;;;;;;;;;;;5.40;1.00;;;;;;10372045;28;84970;-47
2022/04/09 19:25:15;;;;;;;;;;;5.40;1.00;;;;;;10372243;28;84873;-45
2022/04/09 19:30:16;;;;;;;;;;;5.30;1.00;;;;;;10371737;28;84304;-46
2022/04/09 19:35:16;;;;;;;;;;;5.30;1.00;;;;;;10371470;28;84132;-44
2022/04/09 19:40:17;;;;;;;;;;;5.30;1.00;;;;;;10371941;28;84734;-45
2022/04/09 19:45:18;;;;;;;;;;;5.30;1.00;;;;;;10372261;28;84063;-46
2022/04/09 19:50:18;;;;;;;;;;;5.30;1.00;;;;;;10370518;28;84096;-45
2022/04/09 19:55:19;;;;;;;;;;;5.20;1.00;;;;;;10370954;28;85231;-45
2022/04/09 20:00:20;;;;;;;;;;;5.20;1.00;;;;;;10370066;28;85594;-46
2022/04/09 20:05:20;;;;;;;;;;;5.00;1.00;;;;;;10363220;28;84931;-44
2022/04/09 20:10:22;;;;;;;;;;;5.00;1.00;;;;;;10379646;28;87180;-45
2022/04/09 20:15:23;;;;;;;;;;;4.90;1.00;;;;;;10372774;28;84934;-58
2022/04/09 20:20:23;;;;;;;;;;;4.90;1.00;;;;;;10369358;28;84706;-59
2022/04/09 20:25:24;;;;;;;;;;;4.90;1.00;;;;;;10367873;28;85064;-43
2022/04/09 20:30:25;;;;;;;;;;;4.80;1.00;;;;;;10367249;28;85314;-47
2022/04/09 20:35:25;;;;;;;;;;;4.80;1.00;;;;;;10363526;28;84747;-48
2022/04/09 20:40:26;;;;;;;;;;;4.80;1.00;;;;;;10366825;28;85587;-48
2022/04/09 20:45:26;;;;;;;;;;;4.70;1.00;;;;;;10365883;28;84283;-45
2022/04/09 20:50:27;;;;;;;;;;;4.70;1.00;;;;;;10365955;28;85042;-44
2022/04/09 20:55:28;;;;;;;;;;;4.70;1.00;;;;;;10364859;28;84938;-43
2022/04/09 21:00:28;;;;;;;;;;;4.70;1.00;;;;;;10365166;28;84183;-46
2022/04/09 21:05:29;;;;;;;;;;;4.60;1.00;;;;;;10361701;28;85228;-47
2022/04/09 21:10:29;;;;;;;;;;;4.60;1.00;;;;;;10366495;28;84365;-50
2022/04/09 21:15:30;;;;;;;;;;;4.50;1.00;;;;;;10363119;28;84970;-46
2022/04/09 21:20:31;;;;;;;;;;;4.50;8.30;;;;;;10365832;28;85978;-43
2022/04/09 21:25:31;;;;;;;;;;;4.60;1.00;;;;;;10366474;28;84210;-45
2022/04/09 21:30:32;;;;;;;;;;;4.50;1.00;;;;;;10368106;28;84320;-44
2022/04/09 21:35:33;;;;;;;;;;;4.50;1.00;;;;;;10367174;28;84913;-44
2022/04/09 21:40:34;;;;;;;;;;;4.50;1.00;;;;;;10366845;28;85972;-45
2022/04/09 21:45:34;;;;;;;;;;;4.50;1.00;;;;;;10366602;28;84868;-45
2022/04/09 21:50:35;;;;;;;;;;;4.50;1.00;;;;;;10335654;28;86198;-46
2022/04/09 21:55:36;;;;;;;;;;;4.50;1.00;;;;;;10365974;28;85356;-45
2022/04/09 22:00:40;;;;;;;;;;;4.40;1.00;;;;;;10366269;28;85031;-48
2022/04/09 22:05:41;;;;;;;;;;;4.40;1.00;;;;;;10388604;28;84262;-45
2022/04/09 22:10:42;;;;;;;;;;;4.40;9.30;;;;;;10366904;28;84951;-44
2022/04/09 22:15:42;;;;;;;;;;;4.30;9.10;;;;;;10363510;28;84856;-45
2022/04/09 22:20:43;;;;;;;;;;;4.30;1.00;;;;;;10366626;28;84251;-46
2022/04/09 22:25:43;;;;;;;;;;;4.30;13.40;;;;;;10365523;28;84913;-45
2022/04/09 22:30:44;;;;;;;;;;;4.20;7.90;;;;;;10368998;28;84860;-50
2022/04/09 22:35:44;;;;;;;;;;;4.20;15.40;;;;;;10372107;28;84970;-44
2022/04/09 22:40:45;;;;;;;;;;;4.20;12.50;;;;;;10373087;28;84847;-47
2022/04/09 22:45:46;;;;;;;;;;;4.20;13.00;;;;;;10377611;28;85468;-48
2022/04/09 22:50:46;;;;;;;;;;;4.20;13.20;;;;;;10375317;28;85862;-47
2022/04/09 22:55:47;;;;;;;;;;;4.20;26.00;;;;;;10372768;28;84482;-46
2022/04/09 23:00:48;;;;;;;;;;;4.20;20.50;;;;;;10374684;28;84204;-45
2022/04/09 23:05:48;;;;;;;;;;;4.20;8.80;;;;;;10371620;28;84160;-49
2022/04/09 23:10:49;;;;;;;;;;;4.20;19.90;;;;;;10366907;28;84044;-45
2022/04/09 23:15:50;;;;;;;;;;;4.20;28.50;;;;;;10393936;28;84923;-47
2022/04/09 23:20:50;;;;;;;;;;;4.20;35.00;;;;;;10390350;28;84062;-48
2022/04/09 23:25:51;;;;;;;;;;;4.10;31.60;;;;;;10371080;28;84130;-44
2022/04/09 23:30:51;;;;;;;;;;;4.20;26.40;;;;;;10371249;28;84909;-44
2022/04/09 23:35:52;;;;;;;;;;;4.10;26.80;;;;;;10369825;28;84181;-44
2022/04/09 23:40:52;;;;;;;;;;;4.10;37.10;;;;;;10369838;28;84266;-44
2022/04/09 23:45:53;;;;;;;;;;;4.00;36.60;;;;;;10367470;28;87016;-44
2022/04/09 23:50:53;;;;;;;;;;;4.00;40.20;;;;;;10370470;28;87336;-44
2022/04/09 23:55:54;;;;;;;;;;;4.00;63.60;;;;;;10368871;28;85319;-47
